Time;durP1;ratioP1;P1;durP2;ratioP2;P2;SDS_P1;SDS_P2;PMS_P1;PMS_P2;Temp;Humidity;BMP_temperature;BMP_pressure;BME280_temperature;BME280_humidity;BME280_pressure;Samples;Min_cycle;Max_cycle;Signal;HPM_P1;HPM_P2
2021/12/19 00:09:24;;;;;;;7.88;1.40;;;7.10;99.90;;;;;;5016402;28;20144;-79
2021/12/19 00:11:49;;;;;;;4.60;4.15;;;7.20;99.90;;;;;;5016459;28;20042;-79
2021/12/19 00:14:15;;;;;;;2.42;0.85;;;7.20;99.90;;;;;;5031481;28;20069;-80
2021/12/19 00:16:41;;;;;;;0.93;0.60;;;7.20;99.90;;;;;;5016384;28;20038;-80
2021/12/19 00:19:07;;;;;;;1.42;0.93;;;7.30;99.90;;;;;;5019617;28;20042;-77
2021/12/19 00:21:32;;;;;;;1.90;1.90;;;7.20;99.90;;;;;;5026418;28;20092;-79
2021/12/19 00:23:58;;;;;;;1.10;1.10;;;7.10;99.90;;;;;;5020371;28;20049;-80
2021/12/19 00:26:24;;;;;;;1.25;1.13;;;7.10;99.90;;;;;;5016491;28;20046;-81
2021/12/19 00:28:50;;;;;;;1.48;1.40;;;7.20;99.90;;;;;;5016157;28;20042;-80
2021/12/19 00:31:16;;;;;;;5.63;2.55;;;7.10;99.90;;;;;;5015523;28;20529;-80
2021/12/19 00:33:43;;;;;;;2.78;0.35;;;7.10;99.90;;;;;;5015698;28;20120;-80
2021/12/19 00:36:09;;;;;;;2.20;1.77;;;7.10;99.90;;;;;;5015527;28;20038;-79
2021/12/19 00:38:35;;;;;;;0.20;0.20;;;7.10;99.90;;;;;;5016029;28;20060;-79
2021/12/19 00:41:03;;;;;;;1.50;0.75;;;7.10;99.90;;;;;;5015803;28;20042;-79
2021/12/19 00:46:07;;;;;;;0.30;0.30;;;7.20;99.90;;;;;;5014294;28;20054;-79
2021/12/19 00:48:35;;;;;;;0.85;0.38;;;7.00;99.90;;;;;;5014806;28;20505;-79
2021/12/19 00:51:02;;;;;;;0.65;0.65;;;7.20;99.90;;;;;;5015630;28;20041;-79
2021/12/19 00:53:27;;;;;;;0.93;0.93;;;7.10;99.90;;;;;;4997646;28;20054;-80
2021/12/19 00:55:54;;;;;;;1.55;0.63;;;7.10;99.90;;;;;;5014778;28;20188;-80
2021/12/19 00:58:19;;;;;;;0.82;0.82;;;7.20;99.90;;;;;;5015401;28;20046;-79
2021/12/19 01:00:45;;;;;;;1.33;1.33;;;7.20;99.90;;;;;;5000124;28;20046;-80
2021/12/19 01:03:11;;;;;;;8.20;0.70;;;7.20;99.90;;;;;;4995412;28;20133;-79
2021/12/19 01:05:41;;;;;;;1.65;1.65;;;7.20;99.90;;;;;;4995619;28;20051;-78
2021/12/19 01:08:07;;;;;;;0.88;0.88;;;7.20;99.90;;;;;;4995365;28;20096;-79
2021/12/19 01:10:34;;;;;;;1.48;0.82;;;7.20;99.90;;;;;;4995692;28;20407;-80
2021/12/19 01:13:01;;;;;;;0.63;0.63;;;7.30;99.90;;;;;;4995417;28;20050;-80
2021/12/19 01:15:29;;;;;;;2.00;1.90;;;7.30;99.90;;;;;;4995634;28;20046;-82
2021/12/19 01:17:55;;;;;;;1.10;1.00;;;7.30;99.90;;;;;;5009555;28;20503;-80
2021/12/19 01:20:24;;;;;;;3.17;2.97;;;7.30;99.90;;;;;;4995176;28;20081;-79
2021/12/19 01:22:51;;;;;;;1.05;0.68;;;7.20;99.90;;;;;;4994669;28;20483;-81
2021/12/19 01:25:17;;;;;;;2.10;0.75;;;7.20;99.90;;;;;;4977635;28;20061;-83
2021/12/19 01:27:43;;;;;;;3.97;1.80;;;7.30;99.90;;;;;;4977832;28;20042;-85
2021/12/19 01:30:10;;;;;;;1.83;1.75;;;7.20;99.90;;;;;;4994321;28;20043;-84
2021/12/19 01:32:37;;;;;;;2.08;1.98;;;7.20;99.90;;;;;;4994820;28;20529;-83
2021/12/19 01:35:04;;;;;;;8.95;1.42;;;7.20;99.90;;;;;;4977329;28;20044;-83
2021/12/19 01:37:30;;;;;;;1.02;1.02;;;7.20;99.90;;;;;;4995028;28;20049;-84
2021/12/19 01:39:56;;;;;;;0.35;0.35;;;7.20;99.90;;;;;;4995031;28;20042;-84
2021/12/19 01:42:28;;;;;;;0.30;0.30;;;7.10;99.90;;;;;;4977247;28;20142;-83
2021/12/19 01:44:54;;;;;;;0.32;0.32;;;7.20;99.90;;;;;;4977267;28;20056;-83
2021/12/19 01:47:21;;;;;;;0.47;0.47;;;7.20;99.90;;;;;;4994899;28;20133;-83
2021/12/19 01:49:46;;;;;;;1.75;0.60;;;7.10;99.90;;;;;;4994872;28;20089;-83
2021/12/19 01:52:12;;;;;;;0.20;0.20;;;7.10;99.90;;;;;;4977199;28;20511;-84
2021/12/19 01:54:38;;;;;;;0.30;0.30;;;7.20;99.90;;;;;;4976946;28;20056;-85
2021/12/19 01:57:04;;;;;;;3.72;1.48;;;7.10;99.90;;;;;;4994903;28;20117;-83
2021/12/19 01:59:30;;;;;;;0.25;0.25;;;7.10;99.90;;;;;;4994741;28;20129;-84
2021/12/19 02:01:56;;;;;;;6.65;1.05;;;7.10;99.90;;;;;;4994058;28;20419;-83
2021/12/19 02:04:23;;;;;;;0.20;0.20;;;7.00;99.90;;;;;;4994675;28;20054;-84
2021/12/19 02:06:49;;;;;;;0.77;0.77;;;7.00;99.90;;;;;;4994450;28;20042;-83
2021/12/19 02:09:17;;;;;;;0.20;0.20;;;7.10;99.90;;;;;;4977173;28;20059;-83
2021/12/19 02:11:43;;;;;;;0.20;0.20;;;7.00;99.90;;;;;;4976813;28;20057;-82
2021/12/19 02:14:11;;;;;;;0.10;0.10;;;7.00;99.90;;;;;;4994276;28;20069;-82
2021/12/19 02:16:39;;;;;;;0.17;0.17;;;7.00;99.90;;;;;;4994221;28;20046;-82
2021/12/19 02:19:06;;;;;;;0.20;0.20;;;7.00;99.90;;;;;;4994425;28;20081;-84
2021/12/19 02:21:32;;;;;;;1.25;0.55;;;6.90;99.90;;;;;;4994289;28;20053;-83
2021/12/19 02:23:59;;;;;;;0.10;0.10;;;6.90;99.90;;;;;;4976530;28;20042;-84
2021/12/19 02:26:25;;;;;;;0.20;0.20;;;6.90;99.90;;;;;;4994169;28;20062;-83
2021/12/19 02:28:52;;;;;;;0.13;0.13;;;6.90;99.90;;;;;;4993700;28;20399;-82
2021/12/19 02:31:19;;;;;;;0.10;0.10;;;6.80;99.90;;;;;;4993845;28;20042;-81
2021/12/19 02:33:58;;;;;;;0.20;0.20;;;6.80;99.90;;;;;;4976102;28;20479;-82
2021/12/19 02:36:39;;;;;;;0.10;0.10;;;6.90;99.90;;;;;;4993546;28;20050;-85
2021/12/19 02:49:48;;;;;;;0.30;0.30;;;6.90;99.90;;;;;;4993755;28;20119;-83
2021/12/19 02:52:16;;;;;;;0.13;0.13;;;6.80;99.90;;;;;;4976282;28;20062;-83
2021/12/19 02:54:42;;;;;;;0.65;0.52;;;6.90;99.90;;;;;;4993613;28;20035;-82
2021/12/19 02:57:09;;;;;;;0.20;0.20;;;6.90;99.90;;;;;;4993689;28;20053;-83
2021/12/19 02:59:34;;;;;;;0.20;0.20;;;6.80;99.90;;;;;;4992275;28;20085;-83
2021/12/19 03:02:02;;;;;;;0.52;0.20;;;6.90;99.90;;;;;;4992872;28;20131;-83
2021/12/19 03:04:28;;;;;;;0.20;0.20;;;6.90;99.90;;;;;;4993199;28;20483;-82
2021/12/19 03:06:54;;;;;;;0.30;0.30;;;6.90;99.90;;;;;;4992398;28;20044;-82
2021/12/19 03:09:41;;;;;;;0.20;0.20;;;6.90;99.90;;;;;;4993672;28;20129;-82
2021/12/19 03:12:25;;;;;;;0.10;0.10;;;6.90;99.90;;;;;;4992905;28;20046;-80
2021/12/19 03:17:58;;;;;;;0.20;0.20;;;6.90;99.90;;;;;;4993450;28;20058;-84
2021/12/19 03:20:21;;;;;;;0.10;0.10;;;6.80;99.90;;;;;;4998694;28;20053;-84
2021/12/19 03:22:46;;;;;;;0.10;0.10;;;6.80;99.90;;;;;;4982478;28;20050;-82
2021/12/19 03:25:12;;;;;;;0.70;0.45;;;6.80;99.90;;;;;;4999745;28;20460;-82
2021/12/19 03:27:38;;;;;;;0.20;0.20;;;6.80;99.90;;;;;;4982547;28;20045;-82
2021/12/19 03:30:05;;;;;;;0.20;0.20;;;6.80;99.90;;;;;;4999563;28;20128;-84
2021/12/19 03:32:31;;;;;;;0.10;0.10;;;6.80;99.90;;;;;;4999410;28;20046;-82
2021/12/19 03:34:57;;;;;;;0.68;0.68;;;6.80;99.90;;;;;;4999668;28;20085;-79
2021/12/19 03:37:23;;;;;;;0.20;0.20;;;6.80;99.90;;;;;;4999546;28;20128;-79
2021/12/19 03:40:23;;;;;;;0.20;0.20;;;6.80;99.90;;;;;;4999999;28;20038;-81
2021/12/19 03:42:47;;;;;;;0.15;0.15;;;6.70;99.90;;;;;;4996593;28;20509;-81
2021/12/19 03:45:18;;;;;;;0.20;0.20;;;6.70;99.90;;;;;;4982207;28;20050;-81
2021/12/19 03:47:45;;;;;;;0.17;0.17;;;6.70;99.90;;;;;;4999859;28;20049;-81
2021/12/19 03:50:14;;;;;;;0.10;0.10;;;6.70;99.90;;;;;;4982502;28;20050;-81
2021/12/19 03:52:39;;;;;;;0.10;0.10;;;6.70;99.90;;;;;;4999495;28;20514;-82
2021/12/19 03:55:06;;;;;;;1.27;1.20;;;6.70;99.90;;;;;;4999929;28;20038;-81
2021/12/19 03:57:32;;;;;;;0.20;0.20;;;6.70;99.90;;;;;;4999567;28;20129;-81
2021/12/19 03:59:58;;;;;;;0.20;0.20;;;6.70;99.90;;;;;;4999552;28;20077;-80
2021/12/19 04:02:28;;;;;;;0.10;0.10;;;6.60;99.90;;;;;;4999511;28;20066;-78
2021/12/19 04:04:56;;;;;;;0.10;0.10;;;6.60;99.90;;;;;;4982821;28;20177;-81
2021/12/19 04:07:22;;;;;;;0.10;0.10;;;6.60;99.90;;;;;;4999703;28;20117;-80
2021/12/19 04:09:48;;;;;;;0.10;0.10;;;6.50;99.90;;;;;;4998644;28;20041;-81
2021/12/19 04:12:15;;;;;;;0.10;0.10;;;6.50;99.90;;;;;;4999559;28;20117;-81
2021/12/19 04:14:41;;;;;;;0.22;0.22;;;6.50;99.90;;;;;;4999664;28;20457;-80
2021/12/19 04:17:07;;;;;;;2.35;0.82;;;6.50;99.90;;;;;;4999706;28;20104;-80
2021/12/19 04:19:32;;;;;;;0.32;0.32;;;6.50;99.90;;;;;;4999543;28;20042;-79
2021/12/19 04:21:59;;;;;;;0.25;0.25;;;6.50;99.90;;;;;;4981677;28;20046;-79
2021/12/19 04:24:26;;;;;;;1.00;1.00;;;6.50;99.90;;;;;;4999602;28;20042;-81
2021/12/19 04:26:52;;;;;;;0.20;0.20;;;6.40;99.90;;;;;;4999599;28;20050;-80
2021/12/19 04:29:17;;;;;;;0.25;0.25;;;6.50;99.90;;;;;;4982062;28;20407;-80
2021/12/19 04:31:43;;;;;;;0.20;0.20;;;6.50;99.90;;;;;;4995335;28;20034;-81
2021/12/19 04:34:09;;;;;;;4.30;1.55;;;6.50;99.90;;;;;;4996546;28;20376;-81
2021/12/19 04:36:39;;;;;;;0.20;0.20;;;6.50;99.90;;;;;;4995982;28;20472;-81
2021/12/19 04:42:06;;;;;;;0.20;0.20;;;6.50;99.90;;;;;;4996414;28;20097;-82
2021/12/19 04:51:02;;;;;;;0.15;0.15;;;6.50;99.90;;;;;;4996183;28;20184;-81
2021/12/19 04:55:40;;;;;;;0.20;0.20;;;6.50;99.90;;;;;;4996079;28;20439;-80
2021/12/19 05:01:27;;;;;;;0.35;0.35;;;6.60;99.90;;;;;;4916552;29;20132;-80
2021/12/19 05:04:08;;;;;;;0.30;0.30;;;6.60;99.90;;;;;;4916871;29;20048;-81
2021/12/19 05:14:38;;;;;;;18.20;1.30;;;6.70;99.90;;;;;;4916353;29;20059;-81
2021/12/19 05:17:15;;;;;;;2.03;0.77;;;6.60;99.90;;;;;;4916429;29;20048;-80
2021/12/19 05:19:53;;;;;;;1.58;0.60;;;6.60;99.90;;;;;;4900984;29;20391;-80
2021/12/19 05:22:21;;;;;;;0.43;0.43;;;6.60;99.90;;;;;;4916386;29;20104;-81
2021/12/19 05:25:01;;;;;;;0.85;0.85;;;6.60;99.90;;;;;;4916395;29;20605;-80
2021/12/19 05:27:26;;;;;;;1.52;1.52;;;6.60;99.90;;;;;;4900636;29;20048;-81
2021/12/19 05:29:52;;;;;;;0.65;0.65;;;6.60;99.90;;;;;;4900814;29;20143;-81
2021/12/19 05:32:18;;;;;;;0.57;0.57;;;6.60;99.90;;;;;;4939039;28;20058;-81
2021/12/19 05:34:44;;;;;;;2.60;1.27;;;6.60;99.90;;;;;;4975476;28;20125;-82
2021/12/19 05:45:22;;;;;;;1.25;1.02;;;6.70;99.90;;;;;;4975989;28;20129;-81
2021/12/19 05:47:49;;;;;;;6.55;0.75;;;6.70;99.90;;;;;;4975419;28;20492;-81
2021/12/19 05:50:21;;;;;;;1.80;1.52;;;6.70;99.90;;;;;;4975340;28;20043;-80
2021/12/19 05:52:48;;;;;;;7.53;1.55;;;6.70;99.90;;;;;;4957868;28;20047;-81
2021/12/19 05:55:16;;;;;;;1.23;1.23;;;6.80;99.90;;;;;;4975496;28;20101;-78
2021/12/19 05:57:43;;;;;;;4.47;0.77;;;6.80;99.90;;;;;;4975457;28;20046;-81
2021/12/19 06:00:12;;;;;;;6.22;0.90;;;6.80;99.90;;;;;;4957986;28;20046;-80
2021/12/19 06:02:40;;;;;;;3.97;1.00;;;6.80;99.90;;;;;;4989209;28;20058;-81
2021/12/19 06:05:06;;;;;;;1.70;1.13;;;6.80;99.90;;;;;;4977412;28;20132;-81
2021/12/19 06:07:32;;;;;;;0.25;0.25;;;6.80;99.90;;;;;;4976989;28;20054;-81
2021/12/19 06:09:59;;;;;;;1.20;1.10;;;6.80;99.90;;;;;;4976978;28;20394;-79
2021/12/19 06:12:25;;;;;;;0.65;0.65;;;6.80;99.90;;;;;;4994624;28;20046;-80
2021/12/19 06:14:50;;;;;;;2.22;1.63;;;6.80;99.90;;;;;;4994447;28;20042;-81
2021/12/19 06:17:16;;;;;;;0.80;0.47;;;6.90;99.90;;;;;;4994160;28;20134;-80
2021/12/19 06:19:42;;;;;;;8.30;0.82;;;6.80;99.90;;;;;;4994445;28;20046;-79
2021/12/19 06:22:08;;;;;;;8.35;1.33;;;6.80;99.90;;;;;;4994462;28;20438;-80
2021/12/19 06:24:34;;;;;;;0.65;0.65;;;6.80;99.90;;;;;;4976719;28;20104;-80
2021/12/19 06:27:01;;;;;;;0.52;0.50;;;6.90;99.90;;;;;;4994523;28;20046;-80
2021/12/19 06:29:28;;;;;;;4.18;0.93;;;6.90;99.90;;;;;;4994018;28;20054;-80
2021/12/19 06:31:54;;;;;;;2.47;2.38;;;6.80;99.90;;;;;;4976811;28;20046;-80
2021/12/19 06:34:19;;;;;;;2.65;2.45;;;6.90;99.90;;;;;;4993970;28;20154;-80
2021/12/19 06:36:45;;;;;;;0.30;0.30;;;6.80;99.90;;;;;;4977179;28;20057;-80
2021/12/19 06:39:11;;;;;;;3.42;1.17;;;6.80;99.90;;;;;;4976725;28;20399;-80
2021/12/19 06:41:36;;;;;;;2.90;1.10;;;6.80;99.90;;;;;;4976483;28;20050;-80
2021/12/19 06:44:04;;;;;;;3.03;1.02;;;6.80;99.90;;;;;;4976330;28;20046;-80
2021/12/19 06:46:31;;;;;;;5.30;2.47;;;6.80;99.90;;;;;;4976379;28;20058;-80
2021/12/19 06:48:56;;;;;;;12.40;1.30;;;6.80;99.90;;;;;;4994133;28;20049;-80
2021/12/19 06:51:22;;;;;;;15.63;1.80;;;6.80;99.90;;;;;;4993962;28;20129;-80
2021/12/19 06:53:48;;;;;;;1.20;0.80;;;6.70;99.90;;;;;;4993284;28;20081;-80
2021/12/19 06:56:14;;;;;;;1.13;1.00;;;6.80;99.90;;;;;;4976200;28;20046;-80
2021/12/19 06:58:40;;;;;;;0.90;0.90;;;6.70;99.90;;;;;;4976121;28;20061;-79
2021/12/19 07:01:05;;;;;;;2.45;1.85;;;6.80;99.90;;;;;;4976257;28;20034;-80
2021/12/19 07:03:31;;;;;;;0.43;0.32;;;6.70;99.90;;;;;;4993774;28;20541;-80
2021/12/19 07:05:57;;;;;;;2.83;0.70;;;6.80;99.90;;;;;;4993924;28;20038;-81
2021/12/19 07:08:23;;;;;;;0.30;0.30;;;6.70;99.90;;;;;;4976138;28;20057;-80
2021/12/19 07:10:49;;;;;;;2.00;1.38;;;6.80;99.90;;;;;;4993728;28;20115;-79
2021/12/19 07:13:20;;;;;;;7.72;2.38;;;6.80;99.90;;;;;;4993472;28;20054;-81
2021/12/19 07:15:47;;;;;;;7.15;1.73;;;6.80;99.90;;;;;;4994035;28;20051;-81
2021/12/19 07:18:13;;;;;;;1.58;0.38;;;6.70;99.90;;;;;;4993419;28;20053;-80
2021/12/19 07:20:42;;;;;;;1.67;0.70;;;6.80;99.90;;;;;;4993475;28;20050;-81
2021/12/19 07:23:13;;;;;;;0.30;0.28;;;6.80;99.90;;;;;;4975994;28;20057;-81
2021/12/19 07:25:38;;;;;;;0.73;0.73;;;6.70;99.90;;;;;;4993242;28;20510;-82
2021/12/19 07:28:04;;;;;;;1.52;1.42;;;6.80;99.90;;;;;;4975949;28;20046;-80
2021/12/19 07:30:31;;;;;;;0.55;0.55;;;6.80;99.90;;;;;;4975765;28;20043;-81
2021/12/19 07:32:58;;;;;;;1.50;1.20;;;6.70;99.90;;;;;;4993661;28;20127;-81
2021/12/19 07:35:24;;;;;;;0.60;0.45;;;6.70;99.90;;;;;;4993587;28;20092;-81
2021/12/19 07:37:51;;;;;;;0.13;0.13;;;6.80;99.90;;;;;;4993422;28;20046;-81
2021/12/19 07:40:19;;;;;;;0.20;0.20;;;6.70;99.90;;;;;;4993404;28;20612;-81
2021/12/19 07:42:45;;;;;;;0.65;0.65;;;6.70;99.90;;;;;;4992927;28;20495;-82
2021/12/19 07:45:11;;;;;;;6.55;2.08;;;6.70;99.90;;;;;;4993433;28;20529;-81
2021/12/19 07:47:39;;;;;;;2.22;0.88;;;6.70;99.90;;;;;;4993092;28;20117;-80
2021/12/19 07:50:06;;;;;;;2.00;1.23;;;6.70;99.90;;;;;;4993400;28;20039;-81
2021/12/19 07:52:32;;;;;;;0.60;0.60;;;6.70;99.90;;;;;;4975788;28;20150;-80
2021/12/19 07:54:57;;;;;;;2.78;0.52;;;6.80;99.90;;;;;;4993255;28;20129;-77
2021/12/19 07:57:23;;;;;;;2.13;1.98;;;6.80;99.90;;;;;;4993307;28;20038;-81
2021/12/19 07:59:49;;;;;;;0.77;0.77;;;6.80;99.90;;;;;;4993141;28;20042;-79
2021/12/19 08:02:14;;;;;;;5.93;4.13;;;6.80;99.90;;;;;;4992677;28;20426;-81
2021/12/19 08:04:40;;;;;;;2.08;0.77;;;6.90;99.90;;;;;;4994071;28;20137;-81
2021/12/19 08:07:08;;;;;;;0.47;0.47;;;6.80;99.90;;;;;;4996470;28;20042;-80
2021/12/19 08:09:40;;;;;;;0.90;0.40;;;6.80;99.90;;;;;;4995930;28;20058;-80
2021/12/19 08:12:07;;;;;;;2.25;1.98;;;6.80;99.90;;;;;;4979191;28;20086;-82
2021/12/19 08:14:34;;;;;;;0.32;0.32;;;6.80;99.90;;;;;;4996702;28;20082;-80
2021/12/19 08:16:59;;;;;;;3.38;1.08;;;6.80;99.90;;;;;;4996654;28;20039;-81
2021/12/19 08:19:25;;;;;;;3.65;0.77;;;6.80;99.90;;;;;;4996698;28;20061;-80
2021/12/19 08:21:53;;;;;;;1.13;1.13;;;6.80;99.90;;;;;;4996612;28;20129;-81
2021/12/19 08:24:19;;;;;;;1.27;1.27;;;6.80;99.90;;;;;;4996164;28;20503;-81
2021/12/19 08:26:46;;;;;;;1.92;1.17;;;6.80;99.90;;;;;;4978754;28;20047;-81
2021/12/19 08:29:12;;;;;;;1.60;1.55;;;6.80;99.90;;;;;;4978953;28;20463;-81
2021/12/19 08:31:39;;;;;;;0.98;0.82;;;6.80;99.90;;;;;;4978640;28;20050;-80
2021/12/19 08:34:04;;;;;;;0.95;0.77;;;6.80;99.90;;;;;;4978710;28;20046;-80
2021/12/19 08:36:30;;;;;;;1.73;1.33;;;6.80;99.90;;;;;;4996786;28;20050;-81
2021/12/19 08:38:57;;;;;;;17.70;1.15;;;6.80;99.90;;;;;;4996566;28;20487;-80
2021/12/19 08:41:23;;;;;;;0.35;0.35;;;6.80;99.90;;;;;;4996279;28;20050;-81
2021/12/19 08:43:49;;;;;;;1.27;1.17;;;6.90;99.90;;;;;;4995932;28;20438;-81
2021/12/19 08:46:15;;;;;;;0.68;0.65;;;6.80;99.90;;;;;;4978397;28;20054;-82
2021/12/19 08:48:41;;;;;;;0.98;0.88;;;6.90;99.90;;;;;;4996181;28;20042;-81
2021/12/19 08:51:07;;;;;;;0.30;0.30;;;6.90;99.90;;;;;;4996360;28;20410;-81
2021/12/19 08:53:33;;;;;;;3.53;1.20;;;6.90;99.90;;;;;;4996137;28;20042;-81
2021/12/19 08:55:58;;;;;;;0.98;0.90;;;6.90;99.90;;;;;;4996039;28;20049;-80
2021/12/19 08:58:25;;;;;;;0.55;0.55;;;6.90;99.90;;;;;;4996165;28;20053;-81
2021/12/19 09:00:51;;;;;;;0.52;0.52;;;6.90;99.90;;;;;;4994632;28;20097;-81
2021/12/19 09:03:17;;;;;;;0.20;0.20;;;6.90;99.90;;;;;;4995547;28;20046;-82
2021/12/19 09:05:43;;;;;;;0.70;0.60;;;6.90;99.90;;;;;;4978465;28;20057;-81
2021/12/19 09:08:09;;;;;;;0.40;0.40;;;6.90;99.90;;;;;;4978609;28;20393;-81
2021/12/19 09:10:35;;;;;;;0.40;0.40;;;6.90;99.90;;;;;;4996010;28;20125;-81
2021/12/19 09:13:01;;;;;;;3.60;1.65;;;7.00;99.90;;;;;;4978211;28;20054;-82
2021/12/19 09:15:26;;;;;;;0.25;0.25;;;6.90;99.90;;;;;;4996280;28;20046;-82
2021/12/19 09:17:52;;;;;;;0.20;0.20;;;7.00;99.90;;;;;;4994954;28;20457;-79
2021/12/19 09:20:18;;;;;;;6.18;1.83;;;7.00;99.90;;;;;;4995874;28;20042;-80
2021/12/19 09:22:44;;;;;;;1.58;1.20;;;7.00;99.90;;;;;;4995450;28;20494;-81
2021/12/19 09:25:10;;;;;;;1.55;1.55;;;7.00;99.90;;;;;;4995798;28;20100;-80
2021/12/19 09:27:36;;;;;;;1.23;0.60;;;7.00;99.90;;;;;;4995943;28;20045;-81
2021/12/19 09:30:02;;;;;;;1.20;0.50;;;7.10;99.90;;;;;;4996163;28;20039;-81
2021/12/19 09:32:28;;;;;;;0.20;0.20;;;7.00;99.90;;;;;;4995464;28;20144;-80
2021/12/19 09:34:54;;;;;;;2.05;0.75;;;7.00;99.90;;;;;;4995860;28;20078;-81
2021/12/19 09:37:20;;;;;;;0.28;0.28;;;7.20;99.90;;;;;;4978231;28;20046;-81
2021/12/19 09:39:49;;;;;;;1.35;1.35;;;7.10;99.90;;;;;;5003452;28;20049;-80
2021/12/19 09:42:19;;;;;;;2.05;0.63;;;7.10;99.90;;;;;;5004162;28;20046;-81
2021/12/19 09:44:45;;;;;;;0.40;0.40;;;7.10;99.90;;;;;;4978505;28;20053;-81
2021/12/19 09:47:11;;;;;;;0.95;0.95;;;7.10;99.90;;;;;;4977541;28;20053;-81
2021/12/19 09:49:37;;;;;;;12.55;1.45;;;7.10;99.90;;;;;;4995030;28;20391;-81
2021/12/19 09:52:07;;;;;;;0.70;0.70;;;7.10;99.90;;;;;;4977303;28;20050;-81
2021/12/19 09:54:35;;;;;;;0.75;0.40;;;7.20;99.90;;;;;;4995009;28;20434;-81
2021/12/19 09:57:01;;;;;;;5.43;0.95;;;7.10;99.90;;;;;;4977556;28;20125;-80
2021/12/19 09:59:27;;;;;;;2.03;1.80;;;7.10;99.90;;;;;;4977544;28;20080;-79
2021/12/19 10:01:53;;;;;;;0.68;0.68;;;7.20;99.90;;;;;;4994710;28;20136;-80
2021/12/19 10:04:42;;;;;;;0.20;0.20;;;7.20;99.90;;;;;;4977517;28;20058;-80
2021/12/19 10:07:12;;;;;;;0.63;0.40;;;7.20;99.90;;;;;;4995025;28;20046;-80
2021/12/19 10:09:49;;;;;;;0.50;0.50;;;7.20;99.90;;;;;;4979256;28;20050;-81
2021/12/19 10:15:12;;;;;;;0.77;0.77;;;7.30;99.90;;;;;;4977907;28;20065;-81
2021/12/19 10:17:38;;;;;;;0.30;0.30;;;7.30;99.90;;;;;;4993321;28;20050;-80
2021/12/19 10:20:10;;;;;;;0.65;0.65;;;7.30;99.90;;;;;;4994717;28;20078;-80
2021/12/19 10:22:38;;;;;;;3.72;2.17;;;7.40;99.90;;;;;;4994577;28;20043;-81
2021/12/19 10:25:18;;;;;;;16.77;1.27;;;7.40;99.90;;;;;;4994949;28;20046;-80
2021/12/19 10:27:49;;;;;;;0.95;0.82;;;7.40;99.90;;;;;;4993867;28;20039;-81
2021/12/19 10:30:27;;;;;;;0.52;0.52;;;7.40;99.90;;;;;;4976569;28;20050;-80
2021/12/19 10:33:08;;;;;;;1.95;1.38;;;7.40;99.90;;;;;;4976724;28;20046;-80
2021/12/19 10:35:41;;;;;;;0.77;0.75;;;7.40;99.90;;;;;;4980330;28;20129;-81
2021/12/19 10:38:18;;;;;;;1.38;1.38;;;7.40;99.90;;;;;;5009194;28;20050;-80
2021/12/19 10:40:53;;;;;;;0.55;0.40;;;7.40;99.90;;;;;;4996289;28;20045;-79
2021/12/19 10:43:20;;;;;;;0.60;0.60;;;7.40;99.90;;;;;;4994072;28;20058;-79
2021/12/19 10:49:33;;;;;;;1.17;1.08;;;7.40;99.90;;;;;;4994020;28;20036;-80
2021/12/19 10:52:04;;;;;;;;;;;7.40;99.90;;;;;;4976947;28;20050;-81
2021/12/19 10:54:30;;;;;;;1.73;1.73;;;7.50;99.90;;;;;;4994293;28;19932;-81
2021/12/19 10:57:10;;;;;;;0.32;0.32;;;7.50;99.90;;;;;;4994050;28;20050;-80
2021/12/19 10:59:36;;;;;;;1.70;0.80;;;7.50;99.90;;;;;;4993834;28;20053;-80
2021/12/19 11:02:03;;;;;;;7.93;3.63;;;7.50;99.90;;;;;;4993503;28;20048;-81
2021/12/19 11:04:30;;;;;;;2.38;2.28;;;7.50;99.90;;;;;;4993899;28;20088;-78
2021/12/19 11:06:58;;;;;;;1.23;1.10;;;7.50;99.90;;;;;;4976458;28;20380;-83
2021/12/19 11:09:29;;;;;;;1.35;0.93;;;7.50;99.90;;;;;;4976587;28;20054;-82
2021/12/19 11:12:05;;;;;;;8.80;1.03;;;7.60;99.90;;;;;;4976530;28;20072;-81
2021/12/19 11:14:34;;;;;;;3.35;2.60;;;7.60;99.90;;;;;;4976435;28;20086;-82
2021/12/19 11:17:03;;;;;;;0.85;0.85;;;7.60;99.90;;;;;;4994399;28;20061;-82
2021/12/19 11:19:29;;;;;;;0.25;0.25;;;7.60;99.90;;;;;;4993558;28;20057;-82
2021/12/19 11:21:55;;;;;;;0.75;0.75;;;7.60;99.90;;;;;;4993954;28;20038;-82
2021/12/19 11:24:23;;;;;;;1.30;1.20;;;7.60;99.90;;;;;;4976278;28;20057;-81
2021/12/19 11:26:52;;;;;;;0.75;0.75;;;7.60;99.90;;;;;;4994034;28;20088;-81
2021/12/19 11:29:19;;;;;;;5.30;0.65;;;7.60;99.90;;;;;;5000049;28;20522;-82
2021/12/19 11:31:50;;;;;;;0.57;0.57;;;7.60;99.90;;;;;;4987009;28;20072;-83
2021/12/19 11:34:39;;;;;;;0.57;0.57;;;7.60;99.90;;;;;;4994317;28;20129;-81
2021/12/19 11:37:07;;;;;;;0.20;0.20;;;7.60;99.90;;;;;;4993621;28;20061;-78
2021/12/19 11:39:46;;;;;;;0.20;0.20;;;7.60;99.90;;;;;;4976707;28;20561;-83
2021/12/19 11:42:31;;;;;;;8.50;4.85;;;7.60;99.90;;;;;;4997592;28;20458;-83
2021/12/19 11:47:49;;;;;;;2.25;2.15;;;7.60;99.90;;;;;;4997309;28;20125;-85
2021/12/19 11:50:25;;;;;;;2.00;1.67;;;7.70;99.90;;;;;;4997373;28;20051;-85
2021/12/19 11:52:53;;;;;;;0.20;0.20;;;7.70;99.90;;;;;;4997368;28;20046;-84
2021/12/19 11:55:24;;;;;;;1.15;1.13;;;7.70;99.90;;;;;;4998548;28;20399;-84
2021/12/19 11:58:08;;;;;;;0.57;0.35;;;7.70;99.90;;;;;;5017334;28;20050;-85
2021/12/19 12:00:50;;;;;;;2.17;1.98;;;7.70;99.90;;;;;;5016292;28;20490;-84
2021/12/19 12:03:17;;;;;;;0.22;0.22;;;7.70;99.90;;;;;;5016391;28;20148;-83
2021/12/19 12:05:46;;;;;;;0.10;0.10;;;7.70;99.90;;;;;;5016613;28;20053;-86
2021/12/19 12:08:22;;;;;;;0.30;0.30;;;7.70;99.90;;;;;;5016661;28;20052;-87
2021/12/19 12:10:51;;;;;;;0.45;0.45;;;7.80;99.90;;;;;;4998865;28;20046;-84
2021/12/19 12:13:38;;;;;;;1.65;0.60;;;7.70;99.90;;;;;;5016277;28;20569;-85
2021/12/19 12:18:43;;;;;;;0.30;0.30;;;7.70;99.90;;;;;;5016281;28;20061;-85
2021/12/19 12:21:18;;;;;;;0.20;0.20;;;7.80;99.90;;;;;;5031382;28;20149;-80
2021/12/19 12:23:55;;;;;;;0.55;0.55;;;7.80;99.90;;;;;;5015856;28;20042;-83
2021/12/19 12:26:28;;;;;;;1.25;1.15;;;7.70;99.90;;;;;;5016298;28;20046;-86
2021/12/19 12:28:54;;;;;;;0.20;0.20;;;7.80;99.90;;;;;;5016268;28;20136;-85
2021/12/19 12:31:21;;;;;;;0.30;0.30;;;7.70;99.90;;;;;;5015929;28;20064;-83
2021/12/19 12:33:47;;;;;;;0.57;0.57;;;7.80;99.90;;;;;;5015909;28;20052;-82
2021/12/19 12:36:12;;;;;;;0.60;0.60;;;7.70;99.90;;;;;;5031142;28;20038;-87
2021/12/19 12:38:39;;;;;;;1.10;1.10;;;7.70;99.90;;;;;;5016264;28;20433;-85
2021/12/19 12:41:15;;;;;;;0.52;0.52;;;7.80;99.90;;;;;;5015147;28;20049;-85
2021/12/19 12:43:43;;;;;;;0.43;0.43;;;7.80;99.90;;;;;;5015714;28;20359;-86
2021/12/19 12:46:13;;;;;;;0.82;0.82;;;7.80;99.90;;;;;;5016320;28;20049;-88
2021/12/19 12:49:08;;;;;;;2.30;1.40;;;7.80;99.90;;;;;;5016886;28;20045;-89
2021/12/19 12:51:41;;;;;;;4.40;0.95;;;7.80;99.90;;;;;;5015007;28;20095;-87
2021/12/19 12:54:18;;;;;;;0.52;0.52;;;7.80;99.90;;;;;;5016170;28;20048;-92
2021/12/19 12:56:49;;;;;;;0.60;0.60;;;7.80;99.90;;;;;;5016013;28;20046;-87
2021/12/19 12:59:21;;;;;;;4.00;1.25;;;7.80;99.90;;;;;;5016441;28;20034;-83
2021/12/19 13:02:06;;;;;;;6.90;4.05;;;7.80;99.90;;;;;;5016127;28;20050;-88
2021/12/19 13:04:32;;;;;;;2.10;1.85;;;7.90;99.90;;;;;;5016371;28;20042;-87
2021/12/19 13:07:04;;;;;;;20.48;2.60;;;7.90;99.90;;;;;;5016275;28;20042;-85
2021/12/19 13:09:45;;;;;;;1.20;1.13;;;7.80;99.90;;;;;;4998505;28;20042;-83
2021/12/19 13:12:24;;;;;;;0.93;0.93;;;7.80;99.90;;;;;;5015659;28;20050;-90
2021/12/19 13:14:52;;;;;;;1.48;1.48;;;7.80;99.90;;;;;;5016158;28;20053;-91
2021/12/19 13:17:21;;;;;;;1.15;1.15;;;7.70;99.90;;;;;;5031644;28;20042;-85
2021/12/19 13:19:51;;;;;;;2.47;1.65;;;7.70;99.90;;;;;;5016553;28;20458;-90
2021/12/19 13:22:27;;;;;;;2.65;1.75;;;7.70;99.90;;;;;;5015875;28;20049;-87
2021/12/19 13:24:56;;;;;;;0.63;0.63;;;7.70;99.90;;;;;;4998167;28;20053;-87
2021/12/19 13:27:31;;;;;;;1.73;1.65;;;7.60;99.90;;;;;;5015190;28;20038;-85
2021/12/19 13:30:17;;;;;;;0.20;0.20;;;7.60;99.90;;;;;;5015179;28;20042;-81
2021/12/19 13:33:01;;;;;;;0.22;0.22;;;7.60;99.90;;;;;;5015031;28;20054;-81
2021/12/19 13:35:32;;;;;;;0.80;0.80;;;7.60;99.90;;;;;;5014781;28;20045;-82
2021/12/19 13:38:14;;;;;;;0.38;0.38;;;7.70;99.90;;;;;;5015121;28;20088;-83
2021/12/19 13:40:45;;;;;;;1.42;1.33;;;7.70;99.90;;;;;;5014968;28;20058;-82
2021/12/19 13:43:22;;;;;;;0.95;0.95;;;7.70;99.90;;;;;;5014628;28;20046;-83
2021/12/19 13:45:58;;;;;;;1.17;0.98;;;7.70;99.90;;;;;;5015111;28;20118;-90
2021/12/19 13:48:37;;;;;;;1.85;1.27;;;7.80;99.90;;;;;;5001253;28;20046;-96
2021/12/19 13:51:07;;;;;;;0.20;0.20;;;7.80;99.90;;;;;;5032215;28;20046;-87
2021/12/19 13:53:36;;;;;;;3.60;1.40;;;7.80;99.90;;;;;;4997981;28;20049;-89
2021/12/19 13:56:09;;;;;;;1.52;1.52;;;7.80;99.90;;;;;;5015431;28;20070;-91
2021/12/19 13:58:38;;;;;;;0.75;0.75;;;7.80;99.90;;;;;;5015406;28;20046;-88
2021/12/19 14:01:18;;;;;;;4.68;0.65;;;7.80;99.90;;;;;;5013802;28;20046;-86
2021/12/19 14:03:48;;;;;;;0.95;0.75;;;7.80;99.90;;;;;;5014512;28;20049;-87
2021/12/19 14:06:15;;;;;;;1.67;1.67;;;7.80;99.90;;;;;;5014406;28;20045;-86
2021/12/19 14:08:41;;;;;;;2.47;1.85;;;7.80;99.90;;;;;;5014420;28;20045;-88
2021/12/19 14:11:13;;;;;;;6.28;1.77;;;7.80;99.90;;;;;;5014720;28;20060;-86
2021/12/19 14:13:41;;;;;;;1.80;1.73;;;7.80;99.90;;;;;;5014685;28;20497;-85